Time;durP1;ratioP1;P1;durP2;ratioP2;P2;SDS_P1;SDS_P2;PMS_P1;PMS_P2;Temp;Humidity;BMP_temperature;BMP_pressure;BME280_temperature;BME280_humidity;BME280_pressure;Samples;Min_cycle;Max_cycle;Signal;HPM_P1;HPM_P2
2023/08/08 00:00:26;;;;;;;5.05;1.40;;;;;;;16.82;100.00;100846.06;5094895;28;20039;-79
2023/08/08 00:03:12;;;;;;;5.00;1.20;;;;;;;16.84;100.00;100846.56;5087335;28;20031;-79
2023/08/08 00:05:58;;;;;;;7.15;1.50;;;;;;;16.79;100.00;100855.13;5088929;28;20488;-79
2023/08/08 00:08:44;;;;;;;5.72;1.30;;;;;;;16.75;100.00;100855.75;5089921;28;20039;-79
2023/08/08 00:11:30;;;;;;;5.50;1.10;;;;;;;16.76;100.00;100853.75;5103373;28;20031;-79
2023/08/08 00:14:16;;;;;;;5.32;1.20;;;;;;;16.75;100.00;100850.13;5076362;28;20116;-79
2023/08/08 00:17:02;;;;;;;5.25;1.40;;;;;;;16.75;100.00;100852.13;5113053;28;20050;-79
2023/08/08 00:19:47;;;;;;;6.50;1.30;;;;;;;16.73;100.00;100846.84;5089522;28;20055;-79
2023/08/08 00:22:33;;;;;;;3.95;1.25;;;;;;;16.70;100.00;100844.69;5097264;28;20028;-79
2023/08/08 00:25:19;;;;;;;3.95;1.10;;;;;;;16.69;100.00;100847.84;5098189;28;20491;-79
2023/08/08 00:28:05;;;;;;;5.32;1.42;;;;;;;16.68;100.00;100838.56;5077807;28;20036;-79
2023/08/08 00:30:51;;;;;;;5.80;1.55;;;;;;;16.67;100.00;100836.09;5076065;28;20019;-79
2023/08/08 00:33:36;;;;;;;7.25;1.65;;;;;;;16.68;100.00;100835.75;5089918;28;20027;-79
2023/08/08 00:36:22;;;;;;;5.95;1.40;;;;;;;16.63;100.00;100830.34;5105593;28;20064;-79
2023/08/08 00:39:08;;;;;;;5.07;1.42;;;;;;;16.64;100.00;100826.38;5088336;28;20040;-79
2023/08/08 00:41:54;;;;;;;2.97;1.27;;;;;;;16.62;100.00;100828.66;5083269;28;20038;-79
2023/08/08 00:44:40;;;;;;;4.53;1.30;;;;;;;16.62;100.00;100828.66;5094964;28;20403;-79
2023/08/08 00:47:27;;;;;;;5.40;1.40;;;;;;;16.61;100.00;100826.22;5102088;28;20071;-79
2023/08/08 00:50:13;;;;;;;5.95;1.20;;;;;;;16.59;100.00;100829.31;5098050;28;20547;-79
2023/08/08 00:52:59;;;;;;;3.15;1.00;;;;;;;16.62;100.00;100817.44;5109435;28;20043;-79
2023/08/08 00:55:45;;;;;;;5.20;1.38;;;;;;;16.60;100.00;100816.94;5078692;28;20042;-79
2023/08/08 00:58:31;;;;;;;5.90;1.38;;;;;;;16.59;100.00;100815.31;5114886;28;20129;-79
2023/08/08 01:01:17;;;;;;;4.70;1.50;;;;;;;16.61;100.00;100821.41;5101077;28;20035;-79
2023/08/08 01:04:06;;;;;;;7.75;1.63;;;;;;;16.60;100.00;100816.94;5093035;28;20046;-79
2023/08/08 01:07:00;;;;;;;6.63;1.73;;;;;;;16.55;100.00;100817.13;5078658;28;20031;-79
2023/08/08 01:09:50;;;;;;;5.30;1.08;;;;;;;16.54;100.00;100824.69;5118007;28;20040;-79
2023/08/08 01:12:41;;;;;;;6.63;1.23;;;;;;;16.51;100.00;100816.13;5093252;28;20446;-79
2023/08/08 01:15:27;;;;;;;5.90;1.48;;;;;;;16.50;100.00;100820.09;5084406;28;20111;-79
2023/08/08 01:18:14;;;;;;;6.32;1.23;;;;;;;16.48;100.00;100819.56;5075593;28;20078;-79
2023/08/08 01:21:00;;;;;;;8.85;1.65;;;;;;;16.47;100.00;100817.94;5092165;28;20050;-79
2023/08/08 01:24:21;;;;;;;7.57;1.90;;;;;;;16.46;100.00;100811.47;5072182;28;20066;-79
2023/08/08 01:27:07;;;;;;;3.05;1.02;;;;;;;16.47;100.00;100807.53;5096294;28;20395;-79
2023/08/08 01:29:53;;;;;;;3.75;1.30;;;;;;;16.46;100.00;100807.84;5091210;28;20036;-79
2023/08/08 01:32:38;;;;;;;5.85;1.40;;;;;;;16.45;100.00;100800.59;5076324;28;20161;-79
2023/08/08 01:35:25;;;;;;;5.00;1.30;;;;;;;16.45;100.00;100800.59;5087752;28;20111;-79
2023/08/08 01:38:19;;;;;;;6.20;1.35;;;;;;;16.44;100.00;100798.97;5097395;28;20031;-79
2023/08/08 01:41:05;;;;;;;4.60;1.30;;;;;;;16.43;100.00;100786.09;5064243;28;20035;-79
2023/08/08 01:43:50;;;;;;;4.25;1.40;;;;;;;16.43;100.00;100786.09;5090764;28;20027;-79
2023/08/08 01:46:38;;;;;;;3.97;0.95;;;;;;;16.41;100.00;100779.97;5093183;28;20048;-79
2023/08/08 01:49:24;;;;;;;3.30;1.20;;;;;;;16.40;100.00;100783.94;5101418;28;20059;-79
2023/08/08 01:52:09;;;;;;;3.63;1.05;;;;;;;16.38;100.00;100766.63;5098512;28;20115;-79
2023/08/08 01:54:55;;;;;;;4.07;1.40;;;;;;;16.36;100.00;100757.72;5084269;28;20051;-79
2023/08/08 01:57:41;;;;;;;5.00;1.23;;;;;;;16.32;100.00;100765.94;5111270;28;20031;-79
2023/08/08 02:00:27;;;;;;;4.10;1.02;;;;;;;16.29;100.00;100764.63;5090273;28;20027;-79
2023/08/08 02:03:12;;;;;;;5.32;1.50;;;;;;;16.28;100.00;100767.75;5078498;28;20031;-79
2023/08/08 02:05:58;;;;;;;3.92;1.23;;;;;;;16.24;100.00;100772.34;5101582;28;20066;-79
2023/08/08 02:08:44;;;;;;;4.47;1.20;;;;;;;16.19;100.00;100773.34;5109393;28;20036;-79
2023/08/08 02:11:30;;;;;;;5.32;1.50;;;;;;;16.16;100.00;100771.19;5091214;28;20046;-79
2023/08/08 02:14:16;;;;;;;2.97;1.20;;;;;;;16.15;100.00;100769.53;5078335;28;20089;-79
2023/08/08 02:17:02;;;;;;;1.55;0.90;;;;;;;16.08;100.00;100763.59;5101068;28;20524;-79
2023/08/08 02:19:48;;;;;;;4.82;1.30;;;;;;;16.06;100.00;100769.50;5119634;28;20027;-79
2023/08/08 02:22:34;;;;;;;4.07;1.42;;;;;;;16.00;100.00;100770.00;5080884;28;20468;-79
2023/08/08 02:25:19;;;;;;;4.18;1.25;;;;;;;15.96;100.00;100774.56;5099816;28;20494;-79
2023/08/08 02:28:05;;;;;;;4.03;1.17;;;;;;;15.91;100.00;100769.97;5066767;28;20038;-79
2023/08/08 02:30:51;;;;;;;5.15;1.30;;;;;;;15.84;100.00;100767.63;5094503;28;20043;-79
2023/08/08 02:33:37;;;;;;;6.28;1.58;;;;;;;15.81;100.00;100770.25;5083891;28;20040;-79
2023/08/08 02:36:23;;;;;;;3.85;1.33;;;;;;;15.74;100.00;100773.53;5084746;28;20034;-79
2023/08/08 02:39:09;;;;;;;2.50;1.00;;;;;;;15.67;100.00;100775.91;5103288;28;20059;-79
2023/08/08 02:41:55;;;;;;;4.15;1.60;;;;;;;15.66;100.00;100774.28;5118531;28;20037;-79
2023/08/08 02:44:40;;;;;;;3.13;0.90;;;;;;;15.68;100.00;100765.53;5119270;28;20126;-79
2023/08/08 02:47:26;;;;;;;2.58;1.15;;;;;;;15.61;100.00;100768.81;5079937;28;20045;-79
2023/08/08 02:50:12;;;;;;;5.15;1.50;;;;;;;15.54;100.00;100766.44;5093048;28;20499;-79
2023/08/08 02:52:58;;;;;;;2.78;1.25;;;;;;;15.53;100.00;100769.59;5096718;28;20514;-79
2023/08/08 02:55:43;;;;;;;3.35;1.30;;;;;;;15.45;100.00;100774.00;5079274;28;20028;-79
2023/08/08 02:58:29;;;;;;;3.33;1.38;;;;;;;15.42;100.00;100771.81;5087377;28;20028;-79
2023/08/08 03:01:15;;;;;;;2.65;1.00;;;;;;;15.44;100.00;100769.53;5089434;28;20031;-79
2023/08/08 03:04:01;;;;;;;4.35;1.15;;;;;;;15.40;100.00;100766.53;5081141;28;20092;-79
2023/08/08 03:06:47;;;;;;;3.22;1.23;;;;;;;15.42;100.00;100771.81;5063940;28;20430;-79
2023/08/08 03:09:32;;;;;;;3.10;1.15;;;;;;;15.42;100.00;100771.81;5091075;28;20038;-79
2023/08/08 03:12:18;;;;;;;4.03;1.00;;;;;;;15.37;100.00;100769.97;5097987;28;20039;-79
2023/08/08 03:15:04;;;;;;;3.88;1.20;;;;;;;15.34;100.00;100767.81;5071451;28;20127;-79
2023/08/08 03:17:50;;;;;;;4.40;1.10;;;;;;;15.32;100.00;100769.28;5110957;28;20491;-79
2023/08/08 03:20:36;;;;;;;4.82;1.20;;;;;;;15.30;100.00;100769.63;5096661;28;20040;-79
2023/08/08 03:23:23;;;;;;;3.83;1.20;;;;;;;15.29;100.00;100765.16;5093288;28;20067;-79
2023/08/08 03:26:09;;;;;;;5.22;1.55;;;;;;;15.25;100.00;100764.16;5091110;28;20031;-79
2023/08/08 03:28:54;;;;;;;3.70;0.90;;;;;;;15.23;100.00;100774.84;5095203;28;20047;-79
2023/08/08 03:31:40;;;;;;;2.50;1.42;;;;;;;15.23;100.00;100780.44;5117318;28;20042;-79
2023/08/08 03:34:26;;;;;;;4.18;1.30;;;;;;;15.23;100.00;100779.59;5091533;28;20039;-79
2023/08/08 03:37:12;;;;;;;4.20;1.10;;;;;;;15.19;100.00;100779.44;5094310;28;20399;-79
2023/08/08 03:39:57;;;;;;;6.78;1.50;;;;;;;15.16;100.00;100769.69;5092554;28;20038;-79
2023/08/08 03:42:43;;;;;;;5.85;1.50;;;;;;;15.18;100.00;100767.41;5078313;28;20531;-79
2023/08/08 03:45:29;;;;;;;4.15;1.30;;;;;;;15.19;100.00;100782.22;5100983;28;20061;-79
2023/08/08 03:48:15;;;;;;;3.08;1.33;;;;;;;15.17;100.00;100781.72;5089291;28;20039;-79
2023/08/08 03:51:00;;;;;;;3.65;1.27;;;;;;;15.19;100.00;100776.63;5092601;28;20032;-79
2023/08/08 03:53:46;;;;;;;2.33;1.10;;;;;;;15.16;100.00;100778.09;5105157;28;20127;-79
2023/08/08 03:56:32;;;;;;;5.38;1.15;;;;;;;15.17;100.00;100767.72;5079270;28;20035;-79
2023/08/08 03:59:18;;;;;;;3.13;1.40;;;;;;;15.14;100.00;100762.75;5099270;27;20444;-79
2023/08/08 04:02:04;;;;;;;4.20;1.15;;;;;;;15.15;100.00;100761.63;5093030;28;20032;-79
2023/08/08 04:04:49;;;;;;;2.95;1.05;;;;;;;15.15;100.00;100772.81;5090852;28;20031;-78
2023/08/08 04:07:35;;;;;;;4.20;1.10;;;;;;;15.12;100.00;100757.47;5081025;28;20071;-79
2023/08/08 04:10:21;;;;;;;3.50;1.20;;;;;;;15.12;100.00;100756.66;5113333;28;20040;-79
2023/08/08 04:13:07;;;;;;;5.15;1.30;;;;;;;15.07;100.00;100756.78;5085933;28;20036;-79
2023/08/08 04:15:53;;;;;;;4.22;1.48;;;;;;;15.07;100.00;100756.78;5103624;28;20491;-79
2023/08/08 04:18:38;;;;;;;4.53;1.25;;;;;;;15.07;100.00;100751.19;5092805;28;20110;-79
2023/08/08 04:21:26;;;;;;;3.40;1.42;;;;;;;15.02;100.00;100759.72;5088892;28;20119;-79
2023/08/08 04:24:12;;;;;;;3.88;1.33;;;;;;;14.97;100.00;100753.09;5089187;28;20480;-79
2023/08/08 04:26:58;;;;;;;4.55;1.20;;;;;;;14.96;100.00;100750.66;5089495;28;20404;-79
2023/08/08 04:29:43;;;;;;;5.03;1.17;;;;;;;14.89;100.00;100756.66;5082925;28;20551;-79
2023/08/08 04:32:29;;;;;;;3.85;1.40;;;;;;;14.84;100.00;100759.56;5094494;28;20028;-79
2023/08/08 04:35:16;;;;;;;3.85;1.48;;;;;;;14.79;100.00;100762.50;5073438;28;20055;-79
2023/08/08 04:38:01;;;;;;;4.75;1.30;;;;;;;14.75;100.00;100755.91;5082328;28;20059;-79
2023/08/08 04:40:47;;;;;;;4.43;1.58;;;;;;;14.70;100.00;100759.63;5101639;28;20035;-79
2023/08/08 04:43:33;;;;;;;6.57;1.73;;;;;;;14.65;100.00;100761.72;5115116;28;20105;-79
2023/08/08 04:46:19;;;;;;;4.32;1.10;;;;;;;14.62;100.00;100762.34;5117442;28;20032;-79
2023/08/08 04:49:04;;;;;;;3.38;1.20;;;;;;;14.61;100.00;100749.53;5116625;28;20417;-79
2023/08/08 04:51:50;;;;;;;3.65;1.60;;;;;;;14.53;100.00;100765.06;5102696;28;20031;-79
2023/08/08 04:54:36;;;;;;;5.78;1.42;;;;;;;14.51;100.00;100756.13;5102082;28;20100;-79
2023/08/08 04:57:22;;;;;;;2.75;1.30;;;;;;;14.45;100.00;100758.22;5077574;28;20070;-79
2023/08/08 05:00:08;;;;;;;4.65;1.50;;;;;;;14.42;100.00;100764.44;5077905;28;20028;-79
2023/08/08 05:02:54;;;;;;;5.53;1.50;;;;;;;14.41;100.00;100768.38;5074626;28;20066;-79
2023/08/08 05:05:40;;;;;;;6.63;1.40;;;;;;;14.34;100.00;100772.75;5093519;28;20468;-79
2023/08/08 05:08:26;;;;;;;5.32;1.33;;;;;;;14.29;100.00;100768.06;5101959;28;20040;-79
2023/08/08 05:11:11;;;;;;;5.18;1.52;;;;;;;14.30;100.00;100761.38;5115225;28;20027;-79
2023/08/08 05:13:57;;;;;;;4.20;1.20;;;;;;;14.26;100.00;100765.91;5080383;28;20040;-79
2023/08/08 05:16:43;;;;;;;5.10;1.30;;;;;;;14.24;100.00;100766.25;5090591;28;20123;-79
2023/08/08 05:19:29;;;;;;;2.65;1.30;;;;;;;14.20;100.00;100761.59;5089078;28;20031;-79
2023/08/08 05:22:14;;;;;;;4.22;1.30;;;;;;;14.17;100.00;100765.00;5071061;28;20036;-79
2023/08/08 05:25:00;;;;;;;3.80;1.20;;;;;;;14.16;100.00;100775.34;5108083;28;20027;-79
2023/08/08 05:27:46;;;;;;;4.85;1.55;;;;;;;14.15;100.00;100775.66;5087797;28;20411;-79
2023/08/08 05:30:33;;;;;;;4.80;1.30;;;;;;;14.14;100.00;100768.41;5098201;28;20035;-79
2023/08/08 05:33:19;;;;;;;3.50;1.30;;;;;;;14.12;100.00;100765.94;5081498;28;20067;-79
2023/08/08 05:36:04;;;;;;;4.18;1.30;;;;;;;14.12;100.00;100765.09;5080324;28;20031;-79
2023/08/08 05:38:50;;;;;;;4.40;1.23;;;;;;;14.16;100.00;100778.16;5091473;28;20042;-79
2023/08/08 05:41:36;;;;;;;4.68;1.50;;;;;;;14.18;100.00;100775.03;5113049;28;20064;-79
2023/08/08 05:44:22;;;;;;;2.80;1.23;;;;;;;14.26;100.00;100771.50;5084243;28;20471;-79
2023/08/08 05:47:08;;;;;;;4.38;1.30;;;;;;;14.31;100.00;100768.59;5078609;28;20028;-79
2023/08/08 05:49:53;;;;;;;5.40;1.65;;;;;;;14.38;100.00;100766.22;5096602;28;20111;-79
2023/08/08 05:52:39;;;;;;;4.18;1.20;;;;;;;14.48;100.00;100768.75;5101273;28;20032;-79
2023/08/08 05:55:25;;;;;;;4.63;1.50;;;;;;;14.60;100.00;100759.03;5093803;28;20039;-79
2023/08/08 05:58:11;;;;;;;3.53;1.40;;;;;;;14.72;100.00;100764.91;5116235;28;20059;-79
2023/08/08 06:00:57;;;;;;;2.17;1.45;;;;;;;14.86;100.00;100768.47;5102453;28;20395;-79
2023/08/08 06:03:42;;;;;;;3.50;1.10;;;;;;;15.01;100.00;100774.84;5083917;28;20024;-79
2023/08/08 06:06:28;;;;;;;3.67;1.27;;;;;;;15.18;100.00;100772.16;5106403;28;20051;-79
2023/08/08 06:09:15;;;;;;;3.22;1.10;;;;;;;15.37;100.00;100781.19;5096152;28;20032;-79
2023/08/08 06:12:00;;;;;;;3.30;1.02;;;;;;;15.58;100.00;100783.44;5085610;28;20488;-79
2023/08/08 06:14:47;;;;;;;1.70;1.20;;;;;;;15.78;100.00;100770.91;5075733;28;20047;-79
2023/08/08 06:17:33;;;;;;;2.25;1.20;;;;;;;16.01;100.00;100760.44;5065752;28;20145;-79
2023/08/08 06:20:19;;;;;;;4.43;1.10;;;;;;;16.21;100.00;100759.00;5054913;28;20085;-79
2023/08/08 06:23:04;;;;;;;4.60;1.10;;;;;;;16.44;100.00;100766.16;5046253;28;20406;-79
2023/08/08 06:25:50;;;;;;;3.72;1.20;;;;;;;16.67;100.00;100768.81;5062050;28;20460;-79
2023/08/08 06:28:36;;;;;;;7.40;1.27;;;;;;;16.90;100.00;100777.91;5055405;28;20107;-79
2023/08/08 06:31:22;;;;;;;6.32;1.60;;;;;;;17.07;100.00;100780.69;5069244;28;20033;-79
2023/08/08 06:34:08;;;;;;;3.15;1.10;;;;;;;17.28;100.00;100777.22;5044283;28;20087;-79
2023/08/08 06:36:54;;;;;;;6.30;1.50;;;;;;;17.48;100.00;100781.31;5057577;28;20032;-78
2023/08/08 06:39:40;;;;;;;5.60;1.58;;;;;;;17.68;100.00;100774.97;5032671;28;20063;-79
2023/08/08 06:42:25;;;;;;;6.38;1.48;;;;;;;17.88;100.00;100767.81;5058264;28;20041;-79
2023/08/08 06:45:11;;;;;;;2.53;1.20;;;;;;;18.06;100.00;100777.81;5043313;28;20036;-79
2023/08/08 06:47:57;;;;;;;5.18;1.58;;;;;;;18.25;100.00;100785.00;5052352;28;20036;-79
2023/08/08 06:50:43;;;;;;;5.32;1.40;;;;;;;18.46;100.00;100782.22;5032297;28;20037;-79
2023/08/08 06:53:28;;;;;;;4.88;1.60;;;;;;;18.65;100.00;100776.94;5060156;28;20112;-79
2023/08/08 06:56:14;;;;;;;2.45;1.20;;;;;;;18.85;100.00;100766.06;5064034;28;20050;-79
2023/08/08 06:59:00;;;;;;;5.55;1.75;;;;;;;19.02;100.00;100767.91;5035538;28;20068;-79
2023/08/08 07:01:46;;;;;;;5.07;1.30;;;;;;;19.19;100.00;100762.97;5064692;28;20036;-79
2023/08/08 07:04:32;;;;;;;4.65;1.55;;;;;;;19.38;100.00;100773.66;5044138;28;20033;-79
2023/08/08 07:07:18;;;;;;;4.78;1.80;;;;;;;19.59;100.00;100772.81;5048401;28;20041;-79
2023/08/08 07:10:04;;;;;;;3.83;1.40;;;;;;;19.76;100.00;100772.63;5044110;28;20044;-79
2023/08/08 07:12:50;;;;;;;6.25;1.40;;;;;;;19.90;100.00;100777.09;5071875;28;20029;-79
2023/08/08 07:15:37;;;;;;;5.82;1.23;;;;;;;20.06;100.00;100761.16;5044599;28;20118;-79
2023/08/08 07:18:22;;;;;;;4.82;1.25;;;;;;;20.20;100.00;100764.44;5043666;28;20064;-79
2023/08/08 07:21:08;;;;;;;5.80;1.60;;;;;;;20.41;100.00;100769.09;5039745;28;20043;-79
2023/08/08 07:23:54;;;;;;;5.07;1.42;;;;;;;20.50;100.00;100772.59;5074564;28;20039;-79
2023/08/08 07:26:40;;;;;;;4.72;1.30;;;;;;;20.67;100.00;100769.56;5059086;28;20032;-79
2023/08/08 07:29:26;;;;;;;4.53;1.20;;;;;;;20.82;100.00;100761.53;5067757;28;20389;-79
2023/08/08 07:32:11;;;;;;;5.40;1.27;;;;;;;20.92;100.00;100761.84;5055099;28;20033;-79
2023/08/08 07:34:57;;;;;;;5.43;1.30;;;;;;;21.08;100.00;100753.41;5065949;28;20088;-79
2023/08/08 07:37:43;;;;;;;7.55;1.30;;;;;;;21.20;100.00;100752.53;5050995;28;20036;-79
2023/08/08 07:40:29;;;;;;;4.45;1.38;;;;;;;21.32;100.00;100757.31;5065842;28;20055;-79
2023/08/08 07:43:15;;;;;;;4.55;1.35;;;;;;;21.45;100.00;100756.06;5082616;28;20545;-79
2023/08/08 07:46:01;;;;;;;4.85;1.48;;;;;;;21.59;100.00;100758.47;5075035;28;20461;-79
2023/08/08 07:48:46;;;;;;;9.13;1.50;;;;;;;21.60;100.00;100752.47;5055005;28;20044;-79
2023/08/08 07:51:32;;;;;;;4.25;1.15;;;;;;;21.79;100.00;100751.75;5064338;28;20029;-79
2023/08/08 07:54:18;;;;;;;4.30;1.42;;;;;;;21.94;100.00;100755.75;5065996;28;20029;-79
2023/08/08 07:57:04;;;;;;;4.00;1.27;;;;;;;22.07;100.00;100748.81;5056804;28;20024;-79
2023/08/08 07:59:50;;;;;;;4.00;1.20;;;;;;;22.23;100.00;100757.31;5068494;28;20058;-79
2023/08/08 08:02:36;;;;;;;6.50;1.48;;;;;;;22.33;100.00;100761.59;5050403;28;20041;-79
2023/08/08 08:05:21;;;;;;;4.05;1.27;;;;;;;22.53;100.00;100749.09;5047878;28;20042;-79
2023/08/08 08:08:07;;;;;;;4.97;1.40;;;;;;;22.65;100.00;100747.34;5067865;28;20040;-79
2023/08/08 08:10:53;;;;;;;5.20;1.25;;;;;;;22.79;100.00;100747.66;5049111;28;20036;-79
2023/08/08 08:13:39;;;;;;;6.10;0.95;;;;;;;22.95;100.00;100737.09;5054847;28;20029;-79
2023/08/08 08:16:25;;;;;;;5.03;1.38;;;;;;;23.07;100.00;100738.16;5074679;28;20063;-79
2023/08/08 08:19:10;;;;;;;6.28;1.60;;;;;;;23.25;100.00;100750.66;5068067;28;20110;-79
2023/08/08 08:21:56;;;;;;;5.88;1.10;;;;;;;23.36;100.00;100754.53;5049209;28;20057;-79
2023/08/08 08:24:42;;;;;;;2.60;0.90;;;;;;;23.51;100.00;100751.94;5067915;28;20024;-78
2023/08/08 08:27:28;;;;;;;6.07;1.58;;;;;;;23.60;100.00;100755.38;5048060;28;20029;-79
2023/08/08 08:30:14;;;;;;;5.72;1.08;;;;;;;23.80;100.00;100754.16;5051155;28;20033;-79
2023/08/08 08:33:00;;;;;;;4.18;1.13;;;;;;;23.98;100.00;100759.28;5058352;28;20032;-79
2023/08/08 08:35:46;;;;;;;3.97;1.10;;;;;;;24.16;100.00;100753.94;5066606;28;20396;-79
2023/08/08 08:38:32;;;;;;;5.25;1.00;;;;;;;24.36;100.00;100751.81;5055735;28;20033;-79
2023/08/08 08:41:19;;;;;;;6.32;1.13;;;;;;;24.52;100.00;100752.50;5054316;28;20043;-79
2023/08/08 08:44:06;;;;;;;3.92;1.10;;;;;;;24.73;100.00;100749.94;5042499;28;20029;-79
2023/08/08 08:46:51;;;;;;;6.45;1.25;;;;;;;24.91;98.07;100746.53;5042506;28;20041;-79
2023/08/08 08:49:37;;;;;;;3.33;1.08;;;;;;;25.06;97.60;100756.03;5058098;28;20032;-79
2023/08/08 08:52:23;;;;;;;4.30;1.30;;;;;;;25.13;96.44;100745.59;5025177;28;20443;-79
2023/08/08 08:55:09;;;;;;;5.75;1.30;;;;;;;25.20;97.57;100739.19;5075360;28;20060;-79
2023/08/08 08:57:55;;;;;;;3.15;0.90;;;;;;;25.24;96.28;100740.06;5057743;28;20027;-79
2023/08/08 09:00:41;;;;;;;5.47;1.23;;;;;;;25.33;94.98;100745.44;5041540;28;20024;-79
2023/08/08 09:03:27;;;;;;;6.28;1.25;;;;;;;25.39;89.72;100739.00;5041943;28;20032;-79
2023/08/08 09:06:12;;;;;;;3.83;1.00;;;;;;;25.46;90.71;100735.38;5051935;28;20078;-79
2023/08/08 09:08:58;;;;;;;4.18;1.13;;;;;;;25.60;92.67;100729.03;5049879;28;20460;-79
2023/08/08 09:11:51;;;;;;;6.07;1.20;;;;;;;25.78;91.25;100735.72;5024424;28;20033;-79
2023/08/08 09:14:39;;;;;;;3.75;1.27;;;;;;;25.93;89.33;100730.16;5036529;28;20036;-79
2023/08/08 09:17:26;;;;;;;4.53;1.30;;;;;;;26.07;88.33;100728.25;5054409;28;20130;-78
2023/08/08 09:20:16;;;;;;;2.45;0.98;;;;;;;26.29;88.77;100734.09;5080715;28;20032;-79
2023/08/08 09:23:02;;;;;;;5.50;1.08;;;;;;;26.35;82.95;100735.34;5061872;28;20035;-79
2023/08/08 09:25:48;;;;;;;4.90;1.10;;;;;;;26.43;81.55;100748.44;5106045;28;20032;-79
2023/08/08 09:28:34;;;;;;;4.18;1.02;;;;;;;26.43;74.28;100748.44;5105024;28;20031;-79
2023/08/08 09:31:19;;;;;;;5.20;1.40;;;;;;;26.55;77.78;100749.34;5077442;28;20035;-78
2023/08/08 09:34:05;;;;;;;4.80;1.08;;;;;;;26.69;80.87;100755.13;5087465;28;20442;-79
2023/08/08 09:36:52;;;;;;;3.88;1.05;;;;;;;26.75;74.44;100747.84;5074500;28;20043;-79
2023/08/08 09:39:38;;;;;;;2.97;1.10;;;;;;;26.84;74.79;100745.44;5112573;28;20032;-79
2023/08/08 09:42:26;;;;;;;2.95;1.15;;;;;;;26.99;77.77;100734.91;5087123;28;20039;-78
2023/08/08 09:45:11;;;;;;;2.15;0.90;;;;;;;27.11;79.96;100736.59;5084240;28;20035;-79
2023/08/08 09:47:57;;;;;;;2.88;1.00;;;;;;;27.23;79.08;100726.88;5094634;28;20420;-79
2023/08/08 09:50:43;;;;;;;3.30;0.90;;;;;;;27.38;76.54;100720.78;5063858;28;20087;-79
2023/08/08 09:53:29;;;;;;;5.70;1.15;;;;;;;27.54;74.05;100719.63;5087335;28;20028;-79
2023/08/08 09:56:15;;;;;;;4.88;1.15;;;;;;;27.62;66.99;100715.56;5093962;28;20039;-79
2023/08/08 09:59:01;;;;;;;7.22;1.52;;;;;;;27.74;71.13;100723.69;5096709;28;20035;-79
2023/08/08 10:01:47;;;;;;;3.45;1.05;;;;;;;27.81;63.13;100720.91;5095777;28;20023;-79
2023/08/08 10:04:33;;;;;;;3.53;1.10;;;;;;;27.91;61.26;100718.44;5096560;28;20031;-79
2023/08/08 10:07:18;;;;;;;5.63;1.00;;;;;;;28.01;55.04;100714.78;5093502;28;20036;-79
2023/08/08 10:10:05;;;;;;;3.78;0.80;;;;;;;28.16;59.92;100712.72;5092449;28;20032;-79
2023/08/08 10:12:51;;;;;;;4.97;1.08;;;;;;;28.23;62.70;100713.53;5105394;28;20036;-79
2023/08/08 10:15:37;;;;;;;2.13;0.60;;;;;;;28.32;61.82;100700.88;5074526;28;20039;-79
2023/08/08 10:18:23;;;;;;;3.25;0.95;;;;;;;28.50;62.14;100699.63;5081594;28;20051;-79
2023/08/08 10:21:10;;;;;;;5.32;1.15;;;;;;;28.57;60.77;100700.81;5077769;28;20065;-78
2023/08/08 10:24:03;;;;;;;3.75;1.00;;;;;;;28.62;61.17;100703.25;5099054;28;20058;-78
2023/08/08 10:27:00;;;;;;;3.40;1.00;;;;;;;28.72;62.42;100702.38;5097590;28;20038;-78
2023/08/08 10:29:46;;;;;;;3.92;0.90;;;;;;;28.83;61.49;100708.06;5118700;28;20036;-78
2023/08/08 10:32:41;;;;;;;4.90;1.30;;;;;;;28.84;58.73;100699.09;5105497;28;20479;-78
2023/08/08 10:35:35;;;;;;;4.45;0.95;;;;;;;28.92;57.44;100692.13;5105359;28;20039;-78
2023/08/08 10:38:22;;;;;;;3.92;1.08;;;;;;;28.99;56.40;100690.44;5085019;28;20031;-78
2023/08/08 10:41:11;;;;;;;2.03;0.85;;;;;;;29.09;56.25;100695.34;5104799;28;20122;-78
2023/08/08 10:43:57;;;;;;;5.40;1.35;;;;;;;29.11;56.61;100695.72;5089373;28;20036;-79
2023/08/08 10:46:43;;;;;;;4.57;1.00;;;;;;;29.23;55.33;100692.38;5086026;28;20024;-78
2023/08/08 10:49:29;;;;;;;4.18;1.17;;;;;;;29.29;55.99;100696.44;5084687;28;20032;-79
2023/08/08 10:52:15;;;;;;;3.78;1.08;;;;;;;29.33;54.20;100702.91;5106948;28;20036;-79
2023/08/08 10:55:01;;;;;;;5.40;0.90;;;;;;;29.39;52.60;100697.56;5087093;28;20057;-79
2023/08/08 10:57:55;;;;;;;3.90;1.02;;;;;;;29.49;54.49;100705.28;5094862;28;20059;-79
2023/08/08 11:00:41;;;;;;;4.60;0.77;;;;;;;29.59;53.98;100698.66;5092001;28;20031;-79
2023/08/08 11:03:27;;;;;;;4.88;1.08;;;;;;;29.68;53.14;100703.13;5090229;28;20028;-79
2023/08/08 11:06:13;;;;;;;3.95;1.30;;;;;;;29.80;54.11;100705.47;5113455;28;20116;-79
2023/08/08 11:08:58;;;;;;;3.95;1.10;;;;;;;29.90;52.88;100710.31;5096160;28;20568;-79
2023/08/08 11:11:44;;;;;;;2.35;0.90;;;;;;;29.96;50.97;100702.09;5079809;28;20028;-79
2023/08/08 11:14:30;;;;;;;5.82;1.23;;;;;;;30.02;50.12;100706.91;5080486;28;20028;-79
2023/08/08 11:17:16;;;;;;;2.63;1.08;;;;;;;30.11;49.14;100708.47;5096529;28;20044;-79
2023/08/08 11:20:02;;;;;;;3.58;1.17;;;;;;;30.22;50.27;100703.50;5079721;28;20028;-79
2023/08/08 11:22:54;;;;;;;3.72;1.00;;;;;;;30.31;48.11;100703.78;5080948;28;20039;-79
2023/08/08 11:25:44;;;;;;;3.35;0.90;;;;;;;30.39;48.33;100702.47;5095004;28;20460;-79
2023/08/08 11:28:30;;;;;;;2.45;0.85;;;;;;;30.45;47.08;100705.69;5085561;28;20036;-79
2023/08/08 11:31:16;;;;;;;3.45;0.90;;;;;;;30.57;46.23;100684.28;5092914;28;20069;-79
2023/08/08 11:34:02;;;;;;;2.88;0.80;;;;;;;30.60;44.08;100669.09;5079306;28;20036;-79
2023/08/08 11:36:48;;;;;;;2.95;0.90;;;;;;;30.63;44.15;100662.50;5076456;28;20032;-79
2023/08/08 11:39:34;;;;;;;2.33;0.75;;;;;;;30.64;43.45;100664.13;5083307;28;20067;-79
2023/08/08 11:42:19;;;;;;;3.17;0.85;;;;;;;30.70;45.31;100659.53;5089883;28;20028;-79
2023/08/08 11:45:06;;;;;;;3.78;1.08;;;;;;;30.80;47.45;100654.97;5076444;28;20116;-79
2023/08/08 11:47:53;;;;;;;2.95;1.00;;;;;;;30.84;45.21;100642.22;5085415;28;20028;-79
2023/08/08 11:50:40;;;;;;;4.60;0.90;;;;;;;30.90;45.81;100629.00;5080900;28;20035;-79
2023/08/08 11:53:26;;;;;;;2.72;0.90;;;;;;;30.96;46.08;100631.41;5099862;28;20233;-79
2023/08/08 11:56:12;;;;;;;2.53;0.93;;;;;;;31.01;42.79;100636.63;5096276;28;20024;-79
2023/08/08 11:58:58;;;;;;;1.83;0.85;;;;;;;31.00;42.22;100627.22;5082991;28;20104;-79
2023/08/08 12:01:44;;;;;;;3.20;1.10;;;;;;;31.12;43.77;100631.53;5088422;28;20544;-79
2023/08/08 12:04:29;;;;;;;3.60;0.85;;;;;;;31.21;44.94;100623.22;5097889;28;20110;-79
2023/08/08 12:07:17;;;;;;;5.10;0.98;;;;;;;31.25;43.78;100629.72;5092586;28;20040;-79
2023/08/08 12:10:03;;;;;;;2.50;0.68;;;;;;;31.34;43.97;100630.00;5077128;28;20063;-79
2023/08/08 12:12:58;;;;;;;2.42;0.80;;;;;;;31.37;44.25;100639.78;5089065;28;20054;-79
2023/08/08 12:15:44;;;;;;;2.90;1.00;;;;;;;31.47;44.21;100629.41;5088227;28;20095;-79
2023/08/08 12:18:30;;;;;;;2.15;0.70;;;;;;;31.53;44.64;100633.38;5065142;28;20103;-79
2023/08/08 12:21:16;;;;;;;3.22;0.88;;;;;;;31.54;45.84;100623.56;5103355;28;20067;-79
2023/08/08 12:24:02;;;;;;;2.50;0.70;;;;;;;31.59;43.19;100615.25;5109968;28;20032;-79
2023/08/08 12:26:48;;;;;;;5.85;1.00;;;;;;;31.71;44.13;100610.94;5093374;28;20047;-79
2023/08/08 12:29:33;;;;;;;4.05;0.90;;;;;;;31.73;43.95;100611.31;5090761;28;20034;-79
2023/08/08 12:32:20;;;;;;;1.40;0.70;;;;;;;31.74;42.35;100610.06;5088692;28;20031;-79
2023/08/08 12:35:06;;;;;;;4.15;1.10;;;;;;;31.80;44.41;100614.03;5082322;28;20027;-79
2023/08/08 12:37:52;;;;;;;2.15;0.75;;;;;;;31.80;44.46;100619.78;5107980;28;20040;-79
2023/08/08 12:40:38;;;;;;;1.88;0.80;;;;;;;31.86;44.41;100610.69;5088941;28;20107;-79
2023/08/08 12:43:24;;;;;;;3.25;0.70;;;;;;;31.91;42.67;100602.41;5074753;28;20036;-79
2023/08/08 12:46:09;;;;;;;2.00;0.68;;;;;;;32.00;44.61;100607.56;5077809;28;20035;-79